EmailTwitter


Surface observations / Quebec / CYHU (71371)

Regions: Quebec | Canada | USA | Europe | France | UK | Elsewhere
Station
Display
Info & Location for CYHU (71371) | Help decoding METAR

Weather Conditions observed on 2018/08/14 at 11:00 UTC at MONTREAL/ST HUBE, QB (CYHU)

Sky conditions: partly cloudy.

Temperature: 21.0 Celsius.

Dewpoint: 20.0 Celsius.

Relative Humidity: 94%

Humidex: 29.

Winds: Variable at 4 km/h or 2 knots.

Mean Sea level Pressure: 101.23 kilopascals.

Altimeter Setting (QNH): 101.22 kilopascals or 29.89 inches of mercury.

Horizontal visibility: 9.00 statute miles or 14.40 kilometers.

Height of the Ceiling: 2896 metres ( 9500 feet ).

Coded METAR:

CYHU 141100Z AUTO VRB02KT 9SM BKN095 21/20 A2989 RMK SLP123 DENSITY ALT 800FT=